Terminal Aerodrome Forecast
Issued by NWS

Home | Current Version | Previous Version | Text Only | Print | Product List | Glossary On
Versions: 1 2 3 4 5 6 7 8 9 10 11 12 13
337
FTUS42 TJSJ 241120
TAFISX
TAF
TISX 241120Z 2412/2512 11014KT P6SM SCT022 BKN250
     FM241300 11015G21KT P6SM SCT025 SCT035
     FM242130 08009KT P6SM FEW020=

USA.gov is the U.S. government's official web portal to all federal, state and local government web resources and services.